createdAt,value
2022-12-08T00:01:28.719Z,6.26
2022-12-08T00:03:56.442Z,6.30
2022-12-08T00:06:46.728Z,6.24
2022-12-08T00:09:22.129Z,6.26
2022-12-08T00:12:10.795Z,6.39
2022-12-08T00:14:39.828Z,6.02
2022-12-08T00:17:08.141Z,6.29
2022-12-08T00:19:34.922Z,6.19
2022-12-08T00:22:01.943Z,6.16
2022-12-08T00:24:35.154Z,6.10
2022-12-08T00:27:02.988Z,5.99
2022-12-08T00:29:29.667Z,5.93
2022-12-08T00:31:56.455Z,5.85
2022-12-08T00:34:23.233Z,5.84
2022-12-08T00:36:49.844Z,5.82
2022-12-08T00:39:17.721Z,5.89
2022-12-08T00:42:03.135Z,6.15
2022-12-08T00:44:29.876Z,5.94
2022-12-08T00:46:56.823Z,6.03
2022-12-08T00:49:24.070Z,6.32
2022-12-08T00:51:50.894Z,6.10
2022-12-08T00:54:18.290Z,6.05
2022-12-08T00:56:45.025Z,6.17
2022-12-08T00:59:12.136Z,6.00
2022-12-08T01:01:38.746Z,6.12
2022-12-08T01:04:12.205Z,6.03
2022-12-08T01:06:39.437Z,6.17
2022-12-08T01:09:07.656Z,6.12
2022-12-08T01:11:35.113Z,5.97
2022-12-08T01:14:01.828Z,5.87
2022-12-08T01:16:31.111Z,6.09
2022-12-08T01:18:59.153Z,6.02
2022-12-08T01:21:26.056Z,5.93
2022-12-08T01:23:52.650Z,6.01
2022-12-08T01:26:22.203Z,6.01
2022-12-08T01:28:48.840Z,6.21
2022-12-08T01:31:18.239Z,6.12
2022-12-08T01:33:45.247Z,5.90
2022-12-08T01:36:32.844Z,6.11
2022-12-08T01:39:01.333Z,6.31
2022-12-08T01:41:31.285Z,6.09
2022-12-08T01:44:24.683Z,6.21
2022-12-08T01:46:53.582Z,6.29
2022-12-08T01:49:33.108Z,6.04
2022-12-08T01:52:23.406Z,6.07
2022-12-08T01:54:56.243Z,6.02
2022-12-08T01:57:31.005Z,6.02
2022-12-08T02:00:09.901Z,5.97
2022-12-08T02:03:00.384Z,5.86
2022-12-08T02:05:33.560Z,5.87
2022-12-08T02:08:04.470Z,5.99
2022-12-08T02:10:34.711Z,6.13
2022-12-08T02:13:02.923Z,5.71
2022-12-08T02:15:38.785Z,5.73
2022-12-08T02:18:17.576Z,5.62
2022-12-08T02:21:02.292Z,5.75
2022-12-08T02:23:50.573Z,5.60
2022-12-08T02:26:45.567Z,5.75
2022-12-08T02:29:44.211Z,5.59
2022-12-08T02:32:35.636Z,5.49
2022-12-08T02:35:17.919Z,5.59
2022-12-08T02:37:55.185Z,5.71
2022-12-08T02:40:29.120Z,5.76
2022-12-08T02:43:18.111Z,5.85
2022-12-08T02:45:51.767Z,5.70
2022-12-08T02:48:18.355Z,5.57
2022-12-08T02:50:44.983Z,5.70
2022-12-08T02:55:43.212Z,5.69
2022-12-08T02:58:28.349Z,5.64
2022-12-08T03:01:13.032Z,5.69
2022-12-08T03:03:45.781Z,5.41
2022-12-08T03:06:35.097Z,5.36
2022-12-08T03:09:18.828Z,5.29
2022-12-08T03:11:56.081Z,5.35
2022-12-08T03:14:22.926Z,5.30
2022-12-08T03:16:55.183Z,5.24
2022-12-08T03:19:26.432Z,5.11
2022-12-08T03:22:02.717Z,5.21
2022-12-08T03:24:36.358Z,5.21
2022-12-08T03:27:13.703Z,5.24
2022-12-08T03:29:41.025Z,5.02
2022-12-08T03:32:35.550Z,4.87
2022-12-08T03:35:06.680Z,4.94
2022-12-08T03:37:36.039Z,5.04
2022-12-08T03:40:04.964Z,4.96
2022-12-08T03:42:31.773Z,5.03
2022-12-08T03:44:58.292Z,4.82
2022-12-08T03:47:24.865Z,4.75
2022-12-08T03:49:51.452Z,5.01
2022-12-08T03:52:17.963Z,4.78
2022-12-08T03:54:44.530Z,4.89
2022-12-08T03:57:11.186Z,5.17
2022-12-08T03:59:37.726Z,4.77
2022-12-08T04:02:04.357Z,4.81
2022-12-08T04:04:31.304Z,4.98
2022-12-08T04:06:57.945Z,4.87
2022-12-08T04:09:24.639Z,4.66
2022-12-08T04:11:51.242Z,4.63
2022-12-08T04:14:17.732Z,4.67
2022-12-08T04:16:44.284Z,4.66
2022-12-08T04:19:10.881Z,4.47
2022-12-08T04:21:37.387Z,4.46
2022-12-08T04:24:04.048Z,4.66
2022-12-08T04:26:30.735Z,4.69
2022-12-08T04:28:57.228Z,4.40
2022-12-08T04:31:23.941Z,4.32
2022-12-08T04:33:50.648Z,4.49
2022-12-08T04:36:17.177Z,4.52
2022-12-08T04:38:43.748Z,4.49
2022-12-08T04:41:10.522Z,4.57
2022-12-08T04:43:37.244Z,4.68
2022-12-08T04:46:07.397Z,4.63
2022-12-08T04:48:35.104Z,4.73
2022-12-08T04:51:01.628Z,4.63
2022-12-08T04:53:28.189Z,4.69
2022-12-08T04:55:55.012Z,4.48
2022-12-08T04:58:21.875Z,4.48
2022-12-08T05:00:48.937Z,4.41
2022-12-08T05:03:16.137Z,4.40
2022-12-08T05:05:43.061Z,4.45
2022-12-08T05:08:10.488Z,4.39
2022-12-08T05:10:37.350Z,3.97
2022-12-08T05:13:03.877Z,3.94
2022-12-08T05:15:30.517Z,3.98
2022-12-08T05:17:57.117Z,4.03
2022-12-08T05:20:23.779Z,3.91
2022-12-08T05:22:50.538Z,4.06
2022-12-08T05:25:17.355Z,3.87
2022-12-08T05:27:43.978Z,4.12
2022-12-08T05:30:10.717Z,4.16
2022-12-08T05:32:37.407Z,4.06
2022-12-08T05:35:04.041Z,4.08
2022-12-08T05:37:30.587Z,4.12
2022-12-08T05:39:57.184Z,4.23
2022-12-08T05:42:25.075Z,4.32
2022-12-08T05:44:52.311Z,4.24
2022-12-08T05:47:19.036Z,4.18
2022-12-08T05:49:47.002Z,4.14
2022-12-08T05:52:13.585Z,4.36
2022-12-08T05:54:40.255Z,4.51
2022-12-08T05:57:06.890Z,4.21
2022-12-08T05:59:33.457Z,4.09
2022-12-08T06:02:00.219Z,3.99
2022-12-08T06:04:26.932Z,3.95
2022-12-08T06:06:53.654Z,4.10
2022-12-08T06:09:20.212Z,3.91
2022-12-08T06:11:47.282Z,3.80
2022-12-08T06:14:14.110Z,4.12
2022-12-08T06:16:40.806Z,4.41
2022-12-08T06:19:07.459Z,4.30
2022-12-08T06:21:34.105Z,4.22
2022-12-08T06:24:00.915Z,4.32
2022-12-08T06:26:27.728Z,3.84
2022-12-08T06:28:54.755Z,3.96
2022-12-08T06:31:23.824Z,3.83
2022-12-08T06:33:51.104Z,3.82
2022-12-08T06:36:19.673Z,3.92
2022-12-08T06:38:46.633Z,3.79
2022-12-08T06:41:13.391Z,3.82
2022-12-08T06:43:41.158Z,3.91
2022-12-08T06:46:10.571Z,3.95
2022-12-08T06:48:37.167Z,4.40
2022-12-08T06:51:17.241Z,3.95
2022-12-08T06:53:44.571Z,3.73
2022-12-08T06:56:11.672Z,3.75
2022-12-08T06:58:38.970Z,4.06
2022-12-08T07:01:07.693Z,3.98
2022-12-08T07:03:34.766Z,3.96
2022-12-08T07:06:04.041Z,4.47
2022-12-08T07:08:32.063Z,4.22
2022-12-08T07:10:58.842Z,4.28
2022-12-08T07:13:25.465Z,4.18
2022-12-08T07:15:52.212Z,4.23
2022-12-08T07:18:18.799Z,4.11
2022-12-08T07:20:45.429Z,4.02
2022-12-08T07:23:11.963Z,4.12
2022-12-08T07:25:38.623Z,4.18
2022-12-08T07:28:11.801Z,4.18
2022-12-08T07:30:39.249Z,4.00
2022-12-08T07:33:06.689Z,3.99
2022-12-08T07:35:35.015Z,4.08
2022-12-08T07:38:01.940Z,4.12
2022-12-08T07:40:28.804Z,4.01
2022-12-08T07:42:57.255Z,3.96
2022-12-08T07:45:29.862Z,4.10
2022-12-08T07:47:58.173Z,3.97
2022-12-08T07:50:24.823Z,3.88
2022-12-08T07:52:51.318Z,3.99
2022-12-08T07:55:18.150Z,4.02
2022-12-08T07:57:44.714Z,3.72
2022-12-08T08:00:11.780Z,3.42
2022-12-08T08:02:38.549Z,3.50
2022-12-08T08:05:06.325Z,3.66
2022-12-08T08:07:33.051Z,3.74
2022-12-08T08:09:59.710Z,3.75
2022-12-08T08:12:33.624Z,3.52
2022-12-08T08:15:01.528Z,3.63
2022-12-08T08:17:29.262Z,3.45
2022-12-08T08:19:56.400Z,3.55
2022-12-08T08:22:23.076Z,3.53
2022-12-08T08:24:49.699Z,3.27
2022-12-08T08:27:16.287Z,3.61
2022-12-08T08:29:42.851Z,3.53
2022-12-08T08:32:09.511Z,3.69
2022-12-08T08:34:36.135Z,3.81
2022-12-08T08:37:02.787Z,3.93
2022-12-08T08:39:30.395Z,3.97
2022-12-08T08:41:56.939Z,3.98
2022-12-08T08:44:23.681Z,4.03
2022-12-08T08:46:50.314Z,3.87
2022-12-08T08:49:17.023Z,3.66
2022-12-08T08:51:43.924Z,3.48
2022-12-08T08:54:10.679Z,3.48
2022-12-08T08:56:37.168Z,3.21
2022-12-08T08:59:03.901Z,3.31
2022-12-08T09:01:30.937Z,3.69
2022-12-08T09:03:58.101Z,3.67
2022-12-08T09:06:25.288Z,3.66
2022-12-08T09:08:52.264Z,3.65
2022-12-08T09:11:18.903Z,3.82
2022-12-08T09:13:49.473Z,3.83
2022-12-08T09:16:16.768Z,3.86
2022-12-08T09:18:43.381Z,4.07
2022-12-08T09:21:16.590Z,4.16
2022-12-08T09:23:43.722Z,4.06
2022-12-08T09:26:10.382Z,4.11
2022-12-08T09:28:37.089Z,4.18
2022-12-08T09:31:04.119Z,4.18
2022-12-08T09:33:30.826Z,4.42
2022-12-08T09:36:02.242Z,4.32
2022-12-08T09:38:28.728Z,4.31
2022-12-08T09:40:55.372Z,4.27
2022-12-08T09:43:51.764Z,4.40
2022-12-08T09:46:19.724Z,4.26
2022-12-08T09:48:56.142Z,4.17
2022-12-08T09:51:38.998Z,4.08
2022-12-08T09:54:24.274Z,4.26
2022-12-08T09:56:55.018Z,4.47
2022-12-08T09:59:30.660Z,4.42
2022-12-08T10:01:57.475Z,4.40
2022-12-08T10:04:28.827Z,4.49
2022-12-08T10:07:07.565Z,4.52
2022-12-08T10:09:45.629Z,4.40
2022-12-08T10:12:20.899Z,4.51
2022-12-08T10:14:57.187Z,4.10
2022-12-08T10:17:31.889Z,4.29
2022-12-08T10:20:04.259Z,4.43
2022-12-08T10:22:38.678Z,4.67
2022-12-08T10:25:06.683Z,4.60
2022-12-08T10:27:36.698Z,4.55
2022-12-08T10:30:12.092Z,4.69
2022-12-08T10:32:41.285Z,4.80
2022-12-08T10:35:12.062Z,4.73
2022-12-08T10:37:39.160Z,4.79
2022-12-08T10:40:09.016Z,4.84
2022-12-08T10:42:39.691Z,4.77
2022-12-08T10:45:09.140Z,4.62
2022-12-08T10:47:40.757Z,4.66
2022-12-08T10:50:19.434Z,4.55
2022-12-08T10:52:54.261Z,4.32
2022-12-08T10:55:21.760Z,4.40
2022-12-08T10:57:51.454Z,4.40
2022-12-08T11:00:21.964Z,4.59
2022-12-08T11:03:00.585Z,4.74
2022-12-08T11:05:35.730Z,4.54
2022-12-08T11:08:03.995Z,4.51
2022-12-08T11:10:44.700Z,4.69
2022-12-08T11:13:26.382Z,4.68
2022-12-08T11:15:57.018Z,4.59
2022-12-08T11:18:29.873Z,4.73
2022-12-08T11:21:07.637Z,4.98
2022-12-08T11:23:36.616Z,5.25
2022-12-08T11:26:11.858Z,5.42
2022-12-08T11:28:39.278Z,5.39
2022-12-08T11:31:25.480Z,5.15
2022-12-08T11:33:52.951Z,4.91
2022-12-08T11:36:23.063Z,4.96
2022-12-08T11:38:55.256Z,5.16
2022-12-08T11:41:27.166Z,5.23
2022-12-08T11:44:22.243Z,5.22
2022-12-08T11:47:20.503Z,5.28
2022-12-08T11:49:49.063Z,5.19
2022-12-08T11:52:27.862Z,5.09
2022-12-08T11:55:13.976Z,4.96
2022-12-08T11:57:40.675Z,5.20
2022-12-08T12:00:13.406Z,5.60
2022-12-08T12:02:44.963Z,5.75
2022-12-08T12:05:39.923Z,5.50
2022-12-08T12:08:50.368Z,5.02
2022-12-08T12:12:00.383Z,5.21
2022-12-08T12:14:32.708Z,5.34
2022-12-08T12:17:05.425Z,5.32
2022-12-08T12:19:39.625Z,5.12
2022-12-08T12:22:17.804Z,5.11
2022-12-08T12:24:47.547Z,5.25
2022-12-08T12:27:14.109Z,5.35
2022-12-08T12:30:00.722Z,5.36
2022-12-08T12:32:41.411Z,5.44
2022-12-08T12:35:29.294Z,5.74
2022-12-08T12:38:00.083Z,5.82
2022-12-08T12:40:29.123Z,5.70
2022-12-08T12:42:55.725Z,5.48
2022-12-08T12:45:22.203Z,5.43
2022-12-08T12:48:00.503Z,5.21
2022-12-08T12:50:39.029Z,5.31
2022-12-08T12:53:20.798Z,5.17
2022-12-08T12:56:03.990Z,5.37
2022-12-08T12:58:30.615Z,5.27
2022-12-08T13:01:17.001Z,5.37
2022-12-08T13:03:47.558Z,5.45
2022-12-08T13:06:21.569Z,5.61
2022-12-08T13:08:53.559Z,5.69
2022-12-08T13:11:21.539Z,5.60
2022-12-08T13:14:06.477Z,5.58
2022-12-08T13:16:39.462Z,5.79
2022-12-08T13:19:14.968Z,5.83
2022-12-08T13:21:42.052Z,5.86
2022-12-08T13:24:17.187Z,5.97
2022-12-08T13:26:45.787Z,6.04
2022-12-08T13:29:22.051Z,6.28
2022-12-08T13:31:55.617Z,6.35
2022-12-08T13:34:42.352Z,6.45
2022-12-08T13:37:11.687Z,6.34
2022-12-08T13:39:41.039Z,6.30
2022-12-08T13:42:19.367Z,6.35
2022-12-08T13:57:07.128Z,6.28
2022-12-08T13:59:44.749Z,5.97
2022-12-08T14:02:18.059Z,6.07
2022-12-08T14:05:16.994Z,6.37
2022-12-08T14:07:34.356Z,6.55
2022-12-08T14:10:03.767Z,6.50
2022-12-08T14:12:31.568Z,6.54
2022-12-08T14:15:03.734Z,6.71
2022-12-08T14:17:31.443Z,6.78
2022-12-08T14:19:59.183Z,6.43
2022-12-08T14:22:33.995Z,6.29
2022-12-08T14:25:00.830Z,6.55
2022-12-08T14:27:36.167Z,6.50
2022-12-08T14:30:15.565Z,6.48
2022-12-08T14:32:48.206Z,6.52
2022-12-08T14:35:29.999Z,6.32
2022-12-08T14:38:02.661Z,6.35
2022-12-08T14:40:35.722Z,6.32
2022-12-08T14:43:12.570Z,6.40
2022-12-08T14:45:39.126Z,6.29
2022-12-08T14:48:26.033Z,6.31
2022-12-08T14:51:20.301Z,6.32
2022-12-08T14:53:56.398Z,6.40
2022-12-08T14:56:24.820Z,6.38
2022-12-08T14:59:14.791Z,6.24
2022-12-08T15:01:42.358Z,6.22
2022-12-08T15:04:17.405Z,6.16
2022-12-08T15:06:56.355Z,6.14
2022-12-08T15:09:35.157Z,6.01
2022-12-08T15:12:26.634Z,6.12
2022-12-08T15:14:55.348Z,6.04
2022-12-08T15:17:35.936Z,6.12
2022-12-08T15:20:04.630Z,6.05
2022-12-08T15:22:31.761Z,5.95
2022-12-08T15:24:58.583Z,5.97
2022-12-08T15:27:26.181Z,5.77
2022-12-08T15:29:53.334Z,5.71
2022-12-08T15:32:22.397Z,5.74
2022-12-08T15:34:49.466Z,5.92
2022-12-08T15:37:22.176Z,5.94
2022-12-08T15:39:49.449Z,5.91
2022-12-08T15:42:16.505Z,5.98
2022-12-08T15:44:43.846Z,5.81
2022-12-08T15:47:16.324Z,5.99
2022-12-08T15:49:43.045Z,5.94
2022-12-08T15:52:38.963Z,5.92
2022-12-08T15:55:06.045Z,5.84
2022-12-08T16:09:12.485Z,5.85
2022-12-08T16:12:08.240Z,5.91
2022-12-08T16:17:22.740Z,5.70
2022-12-08T16:19:49.301Z,5.51
2022-12-08T16:25:23.354Z,5.53
2022-12-08T16:28:36.925Z,5.47
2022-12-08T16:30:40.242Z,5.57
2022-12-08T16:33:07.117Z,5.56
2022-12-08T16:35:33.672Z,5.70
2022-12-08T16:38:00.478Z,5.80
2022-12-08T16:40:26.991Z,5.94
2022-12-08T16:42:53.570Z,5.72
2022-12-08T16:45:29.155Z,5.62
2022-12-08T16:47:58.293Z,5.57
2022-12-08T16:50:30.547Z,5.59
2022-12-08T16:52:59.189Z,5.75
2022-12-08T16:55:25.947Z,5.60
2022-12-08T16:57:53.211Z,5.73
2022-12-08T17:00:24.831Z,5.70
2022-12-08T17:02:52.208Z,5.63
2022-12-08T17:05:21.014Z,5.58
2022-12-08T17:07:50.177Z,5.74
2022-12-08T17:10:23.282Z,5.82
2022-12-08T17:12:50.339Z,5.85
2022-12-08T17:15:19.635Z,5.91
2022-12-08T17:17:47.476Z,5.97
2022-12-08T17:20:28.214Z,6.01
2022-12-08T17:22:56.293Z,6.04
2022-12-08T17:25:22.909Z,5.99
2022-12-08T17:27:49.475Z,5.97
2022-12-08T17:30:17.794Z,5.85
2022-12-08T17:32:44.582Z,5.76
2022-12-08T17:35:11.406Z,5.83
2022-12-08T17:37:38.238Z,5.84
2022-12-08T17:40:08.163Z,5.74
2022-12-08T17:42:34.957Z,5.47
2022-12-08T17:45:01.717Z,5.42
2022-12-08T17:47:28.244Z,5.44
2022-12-08T17:49:56.114Z,5.49
2022-12-08T17:52:22.942Z,5.62
2022-12-08T17:54:49.463Z,5.77
2022-12-08T17:57:15.962Z,5.65
2022-12-08T17:59:42.719Z,5.69
2022-12-08T18:02:10.878Z,5.65
2022-12-08T18:04:37.718Z,5.57
2022-12-08T18:07:04.447Z,5.48
2022-12-08T18:09:31.491Z,5.19
2022-12-08T18:11:58.180Z,5.11
2022-12-08T18:14:25.188Z,5.19
2022-12-08T18:16:53.366Z,5.23
2022-12-08T18:19:19.931Z,5.26
2022-12-08T18:21:46.547Z,5.36
2022-12-08T18:24:20.933Z,5.17
2022-12-08T18:26:48.078Z,5.36
2022-12-08T18:29:14.739Z,5.26
2022-12-08T18:31:41.239Z,5.35
2022-12-08T18:34:08.111Z,5.46
2022-12-08T18:36:34.831Z,5.29
2022-12-08T18:39:04.585Z,5.32
2022-12-08T18:41:35.557Z,5.25
2022-12-08T18:44:02.056Z,5.21
2022-12-08T18:46:28.693Z,5.19
2022-12-08T18:48:55.613Z,5.13
2022-12-08T18:51:23.708Z,5.40
2022-12-08T18:53:51.297Z,5.32
2022-12-08T18:56:22.328Z,5.16
2022-12-08T18:58:48.880Z,5.09
2022-12-08T19:01:15.653Z,4.92
2022-12-08T19:03:48.928Z,4.92
2022-12-08T19:06:30.047Z,4.82
2022-12-08T19:08:56.939Z,4.95
2022-12-08T19:11:26.137Z,4.80
2022-12-08T19:13:53.974Z,4.65
2022-12-08T19:16:21.524Z,4.64
2022-12-08T19:18:48.078Z,4.82
2022-12-08T19:21:14.688Z,4.63
2022-12-08T19:23:42.176Z,4.70
2022-12-08T19:26:08.898Z,4.81
2022-12-08T19:28:35.540Z,4.98
2022-12-08T19:31:10.130Z,4.81
2022-12-08T19:33:37.742Z,4.77
2022-12-08T19:36:10.670Z,4.84
2022-12-08T19:38:55.862Z,4.91
2022-12-08T19:41:41.642Z,4.88
2022-12-08T19:44:42.079Z,4.86
2022-12-08T19:47:09.317Z,4.89
2022-12-08T19:49:36.039Z,5.01
2022-12-08T19:52:02.680Z,5.01
2022-12-08T19:54:29.510Z,4.84
2022-12-08T19:56:56.305Z,4.60
2022-12-08T19:59:26.400Z,4.72
2022-12-08T20:01:55.973Z,4.86
2022-12-08T20:04:24.146Z,4.83
2022-12-08T20:06:52.604Z,4.81
2022-12-08T20:09:20.361Z,4.66
2022-12-08T20:11:46.963Z,4.67
2022-12-08T20:14:13.643Z,4.66
2022-12-08T20:16:41.917Z,4.77
2022-12-08T20:19:09.451Z,4.94
2022-12-08T20:21:36.045Z,5.05
2022-12-08T20:24:02.713Z,5.08
2022-12-08T20:26:29.276Z,5.01
2022-12-08T20:28:55.935Z,4.77
2022-12-08T20:31:28.350Z,4.84
2022-12-08T20:33:55.511Z,4.75
2022-12-08T20:36:22.485Z,4.61
2022-12-08T20:38:51.016Z,4.65
2022-12-08T20:41:18.552Z,4.69
2022-12-08T20:43:46.458Z,4.69
2022-12-08T20:46:15.517Z,4.92
2022-12-08T20:48:42.944Z,4.91
2022-12-08T20:51:13.103Z,4.86
2022-12-08T20:53:39.759Z,4.76
2022-12-08T20:56:06.724Z,4.86
2022-12-08T20:58:33.294Z,4.94
2022-12-08T21:00:59.934Z,5.04
2022-12-08T21:03:26.860Z,4.87
2022-12-08T21:05:53.865Z,5.08
2022-12-08T21:08:20.886Z,5.19
2022-12-08T21:10:53.871Z,5.09
2022-12-08T21:13:21.233Z,4.96
2022-12-08T21:15:48.092Z,5.02
2022-12-08T21:18:16.338Z,5.23
2022-12-08T21:20:44.071Z,5.39
2022-12-08T21:23:11.426Z,5.31
2022-12-08T21:25:42.690Z,5.23
2022-12-08T21:28:09.940Z,5.31
2022-12-08T21:30:38.851Z,5.15
2022-12-08T21:33:05.781Z,5.13
2022-12-08T21:35:32.460Z,5.18
2022-12-08T21:37:59.576Z,5.18
2022-12-08T21:40:26.126Z,4.91
2022-12-08T21:42:53.107Z,4.94
2022-12-08T21:45:20.877Z,5.21
2022-12-08T21:47:48.865Z,5.13
2022-12-08T21:50:16.541Z,5.26
2022-12-08T21:52:45.843Z,5.22
2022-12-08T21:55:14.352Z,5.15
2022-12-08T21:57:41.488Z,5.09
2022-12-08T22:00:10.953Z,4.96
2022-12-08T22:02:38.003Z,5.03
2022-12-08T22:05:05.345Z,4.94
2022-12-08T22:07:32.013Z,4.93
2022-12-08T22:09:58.782Z,4.97
2022-12-08T22:12:25.460Z,5.01
2022-12-08T22:14:52.406Z,4.92
2022-12-08T22:17:19.741Z,4.99
2022-12-08T22:19:46.527Z,4.86
2022-12-08T22:22:13.259Z,4.92
2022-12-08T22:24:39.889Z,4.97
2022-12-08T22:27:06.720Z,4.84
2022-12-08T22:29:33.515Z,4.78
2022-12-08T22:32:00.224Z,4.65
2022-12-08T22:34:27.314Z,4.69
2022-12-08T22:36:54.293Z,4.57
2022-12-08T22:39:21.111Z,4.46
2022-12-08T22:41:47.972Z,4.44
2022-12-08T22:44:15.843Z,4.25
2022-12-08T22:46:42.787Z,4.52
2022-12-08T22:49:09.562Z,4.61
2022-12-08T22:51:37.369Z,4.53
2022-12-08T22:54:04.449Z,4.74
2022-12-08T22:56:31.129Z,4.67
2022-12-08T22:58:58.513Z,4.49
2022-12-08T23:01:29.566Z,4.44
2022-12-08T23:03:57.521Z,4.45
2022-12-08T23:06:25.790Z,4.58
2022-12-08T23:08:53.217Z,4.42
2022-12-08T23:11:20.699Z,4.36
2022-12-08T23:13:47.617Z,4.41
2022-12-08T23:16:14.552Z,4.40
2022-12-08T23:18:43.231Z,4.50
2022-12-08T23:21:17.190Z,4.44
2022-12-08T23:23:44.208Z,4.60
2022-12-08T23:26:27.339Z,4.63
2022-12-08T23:28:54.518Z,4.47
2022-12-08T23:31:21.494Z,4.42
2022-12-08T23:33:48.657Z,4.37
2022-12-08T23:36:16.687Z,4.54
2022-12-08T23:38:43.756Z,4.46
2022-12-08T23:41:13.063Z,4.63
2022-12-08T23:43:47.295Z,4.81
2022-12-08T23:46:16.013Z,4.89
2022-12-08T23:48:42.878Z,4.75
2022-12-08T23:51:09.740Z,4.74
2022-12-08T23:53:36.427Z,4.76
2022-12-08T23:56:06.200Z,4.69
2022-12-08T23:58:33.946Z,4.75
